Time;durP1;ratioP1;P1;durP2;ratioP2;P2;SDS_P1;SDS_P2;PMS_P1;PMS_P2;Temp;Humidity;BMP_temperature;BMP_pressure;BME280_temperature;BME280_humidity;BME280_pressure;Samples;Min_cycle;Max_cycle;Signal;HPM_P1;HPM_P2
2023/01/22 00:01:43;;;;;;;0.93;0.90;;;;;;;-1.10;nan;103177.63;9847902;29;20055;-83
2023/01/22 00:06:44;;;;;;;2.15;1.60;;;;;;;-1.09;nan;103166.63;9842993;30;20160;-84
2023/01/22 00:11:46;;;;;;;0.75;0.75;;;;;;;-1.08;nan;103179.63;9879759;29;20083;-84
2023/01/22 00:16:48;;;;;;;0.80;0.80;;;;;;;-1.00;nan;103171.78;9852187;30;20047;-84
2023/01/22 00:21:50;;;;;;;2.33;1.05;;;;;;;-1.00;nan;103162.41;9866975;29;20060;-85
2023/01/22 00:26:51;;;;;;;2.00;1.58;;;;;;;-0.97;nan;103160.16;9841920;30;20044;-85
2023/01/22 00:31:53;;;;;;;0.55;0.50;;;;;;;-0.94;nan;103141.56;9862358;29;20429;-84
2023/01/22 00:36:55;;;;;;;0.32;0.32;;;;;;;-0.86;nan;103150.03;9855570;30;20132;-84
2023/01/22 00:41:57;;;;;;;0.85;0.85;;;;;;;-0.81;nan;103144.63;9855617;30;20056;-85
2023/01/22 00:46:59;;;;;;;0.30;0.30;;;;;;;-0.78;nan;103136.28;9849717;30;20055;-84
2023/01/22 00:52:03;;;;;;;1.05;0.95;;;;;;;-0.79;nan;103129.31;9857900;30;20052;-84
2023/01/22 00:57:05;;;;;;;0.22;0.22;;;;;;;-0.76;nan;103137.34;9854682;30;20506;-83
2023/01/22 01:02:07;;;;;;;0.68;0.68;;;;;;;-0.80;nan;103130.06;9854220;29;20048;-83
2023/01/22 01:07:09;;;;;;;0.70;0.70;;;;;;;-0.80;nan;103135.22;9859286;29;20044;-84
2023/01/22 01:12:11;;;;;;;0.88;0.88;;;;;;;-0.77;nan;103140.66;9860109;30;20109;-84
2023/01/22 01:17:13;;;;;;;0.50;0.50;;;;;;;-0.78;nan;103144.00;9854532;30;20090;-84
2023/01/22 01:22:15;;;;;;;0.40;0.40;;;;;;;-0.77;nan;103127.81;9853453;30;20055;-85
2023/01/22 01:27:16;;;;;;;0.90;0.63;;;;;;;-0.75;nan;103124.66;9861618;29;20060;-84
2023/01/22 01:32:18;;;;;;;0.57;0.57;;;;;;;-0.70;nan;103129.34;9868613;29;20059;-84
2023/01/22 01:37:20;;;;;;;0.98;0.73;;;;;;;-0.75;nan;103119.50;9866543;29;20059;-85
2023/01/22 01:42:30;;;;;;;0.45;0.43;;;;;;;-0.74;nan;103115.25;9863947;29;20151;-84
2023/01/22 01:47:36;;;;;;;0.30;0.30;;;;;;;-0.71;nan;103128.41;9836537;29;20465;-86
2023/01/22 01:52:53;;;;;;;0.17;0.17;;;;;;;-0.72;nan;103124.06;9850919;29;20458;-84
2023/01/22 01:58:02;;;;;;;0.63;0.55;;;;;;;-0.68;nan;103117.53;9859533;29;20566;-85
2023/01/22 02:03:06;;;;;;;0.30;0.30;;;;;;;-0.68;nan;103118.44;9836452;29;20052;-84
2023/01/22 02:08:08;;;;;;;0.20;0.20;;;;;;;-0.66;nan;103114.38;9854177;29;20058;-84
2023/01/22 02:13:18;;;;;;;0.40;0.40;;;;;;;-0.64;nan;103127.38;9868560;29;20055;-84
2023/01/22 02:18:20;;;;;;;;;;;;;;;-0.67;nan;103127.97;9859981;29;20115;-85
2023/01/22 02:23:23;;;;;;;0.55;0.55;;;;;;;-0.67;nan;103124.50;9853381;29;19969;-84
2023/01/22 02:28:24;;;;;;;0.28;0.28;;;;;;;-0.66;nan;103118.59;9849335;29;20540;-84
2023/01/22 02:33:29;;;;;;;0.57;0.57;;;;;;;-0.65;nan;103123.88;9836362;29;20100;-84
2023/01/22 02:38:30;;;;;;;0.20;0.20;;;;;;;-0.64;nan;103120.56;9842807;29;20319;-84
2023/01/22 02:43:33;;;;;;;0.55;0.47;;;;;;;-0.59;nan;103124.50;9862615;29;20076;-84
2023/01/22 02:48:35;;;;;;;0.17;0.17;;;;;;;-0.57;nan;103133.28;9842368;29;20491;-84
2023/01/22 02:53:40;;;;;;;0.70;0.57;;;;;;;-0.52;nan;103119.97;9849942;29;20056;-85
2023/01/22 02:58:42;;;;;;;0.90;0.38;;;;;;;-0.53;nan;103124.19;9864400;29;20124;-85
2023/01/22 03:03:51;;;;;;;1.73;0.93;;;;;;;-0.57;nan;103130.72;9868663;29;20052;-83
2023/01/22 03:08:56;;;;;;;0.10;0.10;;;;;;;-0.56;nan;103121.31;9865168;29;20079;-84
2023/01/22 03:24:52;;;;;;;0.38;0.38;;;;;;;-0.62;nan;103110.41;9864051;29;20052;-84
2023/01/22 03:29:57;;;;;;;0.20;0.20;;;;;;;-0.61;nan;103118.28;9855531;29;20617;-84
2023/01/22 03:35:00;;;;;;;0.55;0.43;;;;;;;-0.61;nan;103115.72;9874161;29;20056;-84
2023/01/22 03:40:16;;;;;;;0.10;0.10;;;;;;;-0.64;nan;103112.84;9848782;29;20133;-84
2023/01/22 03:45:18;;;;;;;0.90;0.63;;;;;;;-0.65;nan;103121.31;9836678;30;20049;-84
2023/01/22 03:50:21;;;;;;;0.65;0.50;;;;;;;-0.66;nan;103124.66;9839825;30;20048;-85
2023/01/22 03:55:24;;;;;;;1.55;0.75;;;;;;;-0.68;nan;103115.84;9851824;30;20056;-84
2023/01/22 04:00:28;;;;;;;0.35;0.35;;;;;;;-0.70;nan;103121.63;9849122;29;20117;-85
2023/01/22 04:05:30;;;;;;;0.32;0.32;;;;;;;-0.68;nan;103118.44;9859788;30;20047;-84
2023/01/22 04:10:31;;;;;;;0.30;0.30;;;;;;;-0.72;nan;103114.66;9868413;29;20142;-84
2023/01/22 04:15:36;;;;;;;0.45;0.45;;;;;;;-0.74;nan;103113.56;9846283;30;20079;-84
2023/01/22 04:20:48;;;;;;;1.98;1.13;;;;;;;-0.76;nan;103116.78;9869346;29;20060;-84
2023/01/22 04:25:53;;;;;;;0.60;0.60;;;;;;;-0.79;nan;103116.47;9874135;29;20289;-85
2023/01/22 04:30:55;;;;;;;0.40;0.40;;;;;;;-0.78;nan;103107.97;9864821;29;20173;-84
2023/01/22 04:36:10;;;;;;;0.38;0.38;;;;;;;-0.85;nan;103106.47;9844626;30;20044;-84
2023/01/22 04:41:11;;;;;;;0.60;0.60;;;;;;;-0.84;nan;103117.66;9880282;29;20083;-84
2023/01/22 04:46:14;;;;;;;0.98;0.68;;;;;;;-0.88;nan;103110.41;9836160;30;20459;-83
2023/01/22 04:51:15;;;;;;;0.40;0.40;;;;;;;-0.91;nan;103121.28;9854954;30;20064;-83
2023/01/22 04:56:19;;;;;;;0.50;0.50;;;;;;;-0.93;nan;103117.63;9863829;29;20115;-84
2023/01/22 05:01:21;;;;;;;1.60;1.33;;;;;;;-0.97;nan;103116.41;9857060;29;20048;-84
2023/01/22 05:06:23;;;;;;;0.57;0.52;;;;;;;-0.97;nan;103116.41;9849910;30;20058;-84
2023/01/22 05:11:25;;;;;;;0.55;0.45;;;;;;;-0.95;nan;103104.63;9868082;29;20582;-84
2023/01/22 05:16:33;;;;;;;1.65;0.82;;;;;;;-0.94;nan;103106.44;9830589;30;20580;-83
2023/01/22 05:21:35;;;;;;;0.65;0.50;;;;;;;-0.98;nan;103104.31;9851094;30;20060;-84
2023/01/22 05:26:39;;;;;;;0.70;0.65;;;;;;;-0.98;nan;103106.88;9843272;30;20048;-84
2023/01/22 05:31:46;;;;;;;0.10;0.10;;;;;;;-0.95;nan;103102.03;9850271;30;20060;-84
2023/01/22 05:37:03;;;;;;;1.00;0.90;;;;;;;-0.93;nan;103105.69;9866152;29;20056;-84
2023/01/22 05:42:13;;;;;;;1.13;0.47;;;;;;;-0.87;nan;103096.75;9855273;29;20059;-85
2023/01/22 05:47:16;;;;;;;0.30;0.30;;;;;;;-0.91;nan;103101.59;9853432;29;20101;-85
2023/01/22 05:52:23;;;;;;;1.75;0.68;;;;;;;-0.92;nan;103106.59;9837804;29;20104;-84
2023/01/22 05:57:26;;;;;;;0.40;0.40;;;;;;;-0.94;nan;103100.41;9838643;29;20135;-84
2023/01/22 06:02:28;;;;;;;0.47;0.47;;;;;;;-0.98;nan;103103.41;9835571;29;20067;-84
2023/01/22 06:07:30;;;;;;;2.10;0.35;;;;;;;-0.96;nan;103105.38;9861826;29;20039;-84
2023/01/22 06:12:32;;;;;;;0.50;0.50;;;;;;;-0.90;nan;103111.16;9846131;29;20052;-84
2023/01/22 06:17:34;;;;;;;1.42;0.98;;;;;;;-0.92;nan;103112.63;9867694;29;20079;-84
2023/01/22 06:22:36;;;;;;;0.52;0.47;;;;;;;-0.94;nan;103111.59;9838193;29;20186;-83
2023/01/22 06:27:39;;;;;;;3.63;1.00;;;;;;;-0.94;nan;103098.72;9848177;29;20086;-85
2023/01/22 06:32:40;;;;;;;0.28;0.28;;;;;;;-0.92;nan;103107.50;9862126;29;20138;-84
2023/01/22 06:37:44;;;;;;;1.30;0.75;;;;;;;-0.93;nan;103110.84;9838367;29;20833;-85
2023/01/22 06:42:46;;;;;;;1.50;0.88;;;;;;;-0.92;nan;103112.63;9846980;29;20526;-85
2023/01/22 06:47:48;;;;;;;0.43;0.43;;;;;;;-0.88;nan;103118.13;9847794;29;20051;-85
2023/01/22 06:52:51;;;;;;;0.50;0.50;;;;;;;-0.87;nan;103114.78;9828297;29;20525;-84
2023/01/22 06:57:56;;;;;;;0.47;0.47;;;;;;;-0.84;nan;103120.22;9849713;29;20056;-84
2023/01/22 07:02:57;;;;;;;0.20;0.20;;;;;;;-0.84;nan;103122.78;9845361;29;20426;-84
2023/01/22 07:08:00;;;;;;;0.90;0.85;;;;;;;-0.80;nan;103125.81;9842710;29;20094;-84
2023/01/22 07:13:03;;;;;;;1.17;0.93;;;;;;;-0.78;nan;103131.13;9868917;29;20143;-84
2023/01/22 07:18:05;;;;;;;1.52;0.82;;;;;;;-0.80;nan;103132.66;9844867;29;20109;-84
2023/01/22 07:23:10;;;;;;;1.25;1.15;;;;;;;-0.78;nan;103133.69;9850227;29;20147;-86
2023/01/22 07:28:13;;;;;;;0.10;0.10;;;;;;;-0.80;nan;103127.50;9853134;29;20056;-84
2023/01/22 07:33:52;;;;;;;0.63;0.63;;;;;;;-0.79;nan;103131.91;9857034;29;20048;-85
2023/01/22 07:38:54;;;;;;;0.38;0.38;;;;;;;-0.81;nan;103134.31;9842762;29;20107;-83
2023/01/22 07:43:58;;;;;;;0.65;0.60;;;;;;;-0.80;nan;103140.38;9856554;29;20533;-82
2023/01/22 07:49:00;;;;;;;1.65;1.23;;;;;;;-0.80;nan;103148.09;9850580;29;20055;-80
2023/01/22 07:54:02;;;;;;;0.65;0.65;;;;;;;-0.80;nan;103156.69;9840288;29;20105;-81
2023/01/22 07:59:04;;;;;;;1.20;0.65;;;;;;;-0.78;nan;103160.34;9861267;29;20395;-82
2023/01/22 08:04:06;;;;;;;1.30;0.50;;;;;;;-0.75;nan;103164.88;9856409;29;20060;-83
2023/01/22 08:09:08;;;;;;;0.75;0.52;;;;;;;-0.76;nan;103174.28;9869505;29;20051;-85
2023/01/22 08:14:09;;;;;;;0.75;0.75;;;;;;;-0.76;nan;103173.38;9858859;29;20052;-83
2023/01/22 08:19:12;;;;;;;1.08;0.85;;;;;;;-0.78;nan;103174.88;9854815;29;20117;-84
2023/01/22 08:24:14;;;;;;;1.08;0.73;;;;;;;-0.78;nan;103180.00;9850205;29;20055;-84
2023/01/22 08:29:19;;;;;;;0.52;0.50;;;;;;;-0.78;nan;103185.16;9854976;29;20114;-83
2023/01/22 08:34:21;;;;;;;2.83;1.42;;;;;;;-0.75;nan;103185.47;9869458;29;20055;-83
2023/01/22 08:39:23;;;;;;;0.95;0.65;;;;;;;-0.77;nan;103186.97;9851826;29;20048;-83
2023/01/22 08:44:25;;;;;;;0.50;0.50;;;;;;;-0.71;nan;103182.47;9841172;29;20105;-81
2023/01/22 08:49:29;;;;;;;0.65;0.65;;;;;;;-0.71;nan;103195.31;9844457;29;20055;-81
2023/01/22 08:54:31;;;;;;;0.35;0.35;;;;;;;-0.69;nan;103185.19;9870701;29;20075;-81
2023/01/22 08:59:32;;;;;;;0.30;0.30;;;;;;;-0.65;nan;103188.22;9858399;29;20591;-81
2023/01/22 09:04:34;;;;;;;0.43;0.43;;;;;;;-0.62;nan;103185.94;9853519;29;20070;-81
2023/01/22 09:09:36;;;;;;;0.63;0.50;;;;;;;-0.58;nan;103188.09;9853160;29;20052;-82
2023/01/22 09:14:37;;;;;;;1.50;1.02;;;;;;;-0.58;nan;103182.03;9846864;29;20052;-81
2023/01/22 09:19:39;;;;;;;1.63;1.30;;;;;;;-0.51;nan;103180.97;9838722;29;20059;-81
2023/01/22 09:24:41;;;;;;;2.05;1.73;;;;;;;-0.48;nan;103182.22;9864964;29;20143;-82
2023/01/22 09:29:43;;;;;;;0.60;0.57;;;;;;;-0.44;nan;103179.16;9842960;29;20044;-81
2023/01/22 09:34:45;;;;;;;0.38;0.38;;;;;;;-0.44;nan;103188.56;9840394;29;20052;-82
2023/01/22 09:39:48;;;;;;;0.68;0.68;;;;;;;-0.41;nan;103191.44;9851405;29;20105;-81
2023/01/22 09:44:59;;;;;;;0.30;0.30;;;;;;;-0.33;nan;103187.06;9861324;29;20051;-81
2023/01/22 09:50:06;;;;;;;0.30;0.30;;;;;;;-0.27;nan;103188.59;9859549;29;20055;-83
2023/01/22 09:55:13;;;;;;;0.52;0.52;;;;;;;-0.25;nan;103192.22;9859040;30;21068;-79
2023/01/22 10:00:22;;;;;;;1.35;1.05;;;;;;;-0.25;nan;103192.22;9844964;29;20052;-80
2023/01/22 10:05:47;;;;;;;0.68;0.40;;;;;;;-0.21;nan;103186.63;9844835;30;20063;-82
2023/01/22 10:10:52;;;;;;;0.50;0.50;;;;;;;-0.15;nan;103182.81;9857071;30;20086;-84
2023/01/22 10:15:55;;;;;;;0.40;0.40;;;;;;;-0.09;nan;103184.34;9862699;30;20051;-80
2023/01/22 10:21:01;;;;;;;2.40;0.82;;;;;;;-0.12;nan;103176.34;9850242;29;20109;-83
2023/01/22 10:26:17;;;;;;;0.10;0.10;;;;;;;-0.10;nan;103174.81;9832026;30;20075;-82
2023/01/22 10:31:25;;;;;;;0.40;0.40;;;;;;;-0.06;nan;103169.19;9828035;30;20056;-82
2023/01/22 10:36:28;;;;;;;1.02;0.80;;;;;;;-0.03;nan;103171.16;9845895;30;20055;-82
2023/01/22 10:41:30;;;;;;;1.38;1.20;;;;;;;0.04;nan;103171.00;9832226;30;20602;-82
2023/01/22 10:46:32;;;;;;;0.95;0.75;;;;;;;0.10;nan;103170.69;9844392;30;20047;-82
2023/01/22 10:51:40;;;;;;;0.25;0.22;;;;;;;0.13;nan;103166.75;9843882;30;20051;-82
2023/01/22 10:56:42;;;;;;;0.75;0.70;;;;;;;0.20;nan;103167.38;9863418;30;20055;-83
2023/01/22 11:01:47;;;;;;;1.00;0.90;;;;;;;0.20;nan;103162.22;9875375;29;20060;-82
2023/01/22 11:06:56;;;;;;;2.05;0.70;;;;;;;0.23;nan;103159.94;9852374;30;20066;-82
2023/01/22 11:12:14;;;;;;;1.27;1.08;;;;;;;0.26;nan;103160.22;9852989;30;20142;-82
2023/01/22 11:17:23;;;;;;;1.38;0.93;;;;;;;0.30;nan;103149.44;9851288;29;20433;-83
2023/01/22 11:22:32;;;;;;;1.13;1.02;;;;;;;0.32;nan;103141.09;9853901;29;20066;-82
2023/01/22 11:27:49;;;;;;;0.40;0.40;;;;;;;0.37;nan;103138.97;9845475;29;20548;-82
2023/01/22 11:33:01;;;;;;;0.57;0.47;;;;;;;0.45;nan;103139.69;9860391;29;20063;-82
2023/01/22 11:38:09;;;;;;;0.60;0.60;;;;;;;0.43;nan;103136.97;9842647;29;20523;-82
2023/01/22 11:43:41;;;;;;;2.08;1.08;;;;;;;0.42;nan;103126.50;9853319;29;20319;-82
2023/01/22 11:49:01;;;;;;;1.02;0.85;;;;;;;0.45;nan;103127.72;9832789;29;20055;-82
2023/01/22 11:54:14;;;;;;;1.35;0.95;;;;;;;0.46;nan;103119.22;9857950;29;20113;-82
2023/01/22 11:59:38;;;;;;;1.42;0.93;;;;;;;0.47;nan;103120.13;9857175;29;20079;-82
2023/01/22 12:05:10;;;;;;;3.35;1.67;;;;;;;0.52;nan;103127.53;9849395;29;20101;-82
2023/01/22 12:10:33;;;;;;;1.08;0.80;;;;;;;0.57;nan;103129.63;9850921;30;21621;-83
2023/01/22 12:16:04;;;;;;;1.00;0.47;;;;;;;0.61;nan;103127.50;9856984;30;20064;-82
2023/01/22 12:21:22;;;;;;;2.10;1.27;;;;;;;0.66;nan;103125.34;9850524;30;20071;-83
2023/01/22 12:26:32;;;;;;;2.70;1.42;;;;;;;0.68;nan;103131.59;9849581;30;20055;-82
2023/01/22 12:31:40;;;;;;;3.38;2.00;;;;;;;0.73;nan;103138.06;9847535;30;20051;-82
2023/01/22 12:36:43;;;;;;;0.52;0.52;;;;;;;0.83;nan;103125.28;9843193;30;20048;-83
2023/01/22 12:41:55;;;;;;;0.55;0.55;;;;;;;0.84;nan;103127.09;9858877;30;20052;-82
2023/01/22 12:47:08;;;;;;;0.30;0.30;;;;;;;0.84;nan;103126.19;9842997;30;20098;-84
2023/01/22 12:52:26;;;;;;;0.30;0.30;;;;;;;0.91;nan;103130.25;9847423;30;20086;-84
2023/01/22 12:57:40;;;;;;;0.82;0.73;;;;;;;0.92;nan;103124.34;9856859;29;20051;-82
2023/01/22 13:02:42;;;;;;;1.95;1.17;;;;;;;0.94;nan;103127.97;9854414;29;20062;-83
2023/01/22 13:07:44;;;;;;;0.30;0.30;;;;;;;0.93;nan;103128.72;9842058;29;20072;-83
2023/01/22 13:12:48;;;;;;;0.90;0.50;;;;;;;0.94;nan;103125.38;9846461;29;20472;-81
2023/01/22 13:18:05;;;;;;;1.65;1.10;;;;;;;0.96;nan;103129.94;9850018;29;20262;-82
2023/01/22 13:23:11;;;;;;;0.85;0.65;;;;;;;1.04;nan;103125.50;9866872;29;20133;-81
2023/01/22 13:28:16;;;;;;;2.83;1.30;;;;;;;1.04;nan;103135.81;9865982;29;20059;-82
2023/01/22 13:33:17;;;;;;;0.30;0.30;;;;;;;1.04;nan;103138.38;9854607;29;20059;-83
2023/01/22 13:38:22;;;;;;;0.88;0.70;;;;;;;0.95;nan;103140.13;9853394;29;20054;-82
2023/01/22 13:43:25;;;;;;;0.95;0.55;;;;;;;0.98;nan;103137.81;9853998;29;20111;-82
2023/01/22 13:48:26;;;;;;;1.50;0.63;;;;;;;1.02;nan;103140.81;9837167;29;20586;-82
2023/01/22 13:53:31;;;;;;;0.50;0.50;;;;;;;1.08;nan;103135.31;9842965;29;20105;-82
2023/01/22 13:58:40;;;;;;;0.45;0.45;;;;;;;1.07;nan;103146.41;9850959;29;20057;-82
2023/01/22 14:03:58;;;;;;;0.80;0.52;;;;;;;1.05;nan;103137.59;9845047;29;20063;-82
2023/01/22 14:08:59;;;;;;;1.23;0.60;;;;;;;1.06;nan;103149.75;9845530;29;20048;-83
2023/01/22 14:14:02;;;;;;;1.35;0.68;;;;;;;1.09;nan;103157.78;9875883;29;20146;-83
2023/01/22 14:19:04;;;;;;;0.32;0.32;;;;;;;1.16;nan;103155.00;9838155;29;20055;-82
2023/01/22 14:24:06;;;;;;;0.95;0.57;;;;;;;1.19;nan;103160.44;9859950;29;20378;-82
2023/01/22 14:29:08;;;;;;;1.08;0.55;;;;;;;1.18;nan;103158.63;9836565;29;20058;-83
2023/01/22 14:34:11;;;;;;;1.02;0.85;;;;;;;1.20;nan;103154.53;9860293;29;20131;-82
2023/01/22 14:39:13;;;;;;;0.40;0.40;;;;;;;1.21;nan;103156.31;9856816;29;20044;-82
2023/01/22 14:44:14;;;;;;;0.95;0.90;;;;;;;1.18;nan;103160.31;9859678;29;20052;-82
2023/01/22 14:49:16;;;;;;;0.65;0.60;;;;;;;1.20;nan;103167.44;9851000;29;20052;-83
2023/01/22 14:54:18;;;;;;;0.47;0.47;;;;;;;1.23;nan;103169.38;9850659;29;20051;-83
2023/01/22 14:59:20;;;;;;;0.47;0.47;;;;;;;1.24;nan;103173.78;9850598;29;20040;-83
2023/01/22 15:04:22;;;;;;;0.98;0.90;;;;;;;1.19;nan;103173.34;9850215;29;20063;-82
2023/01/22 15:09:23;;;;;;;0.55;0.55;;;;;;;1.21;nan;103176.97;9853661;29;20086;-82
2023/01/22 15:14:25;;;;;;;1.27;0.63;;;;;;;1.24;nan;103178.94;9864326;29;20083;-83
2023/01/22 15:19:27;;;;;;;0.75;0.65;;;;;;;1.23;nan;103182.28;9842335;29;20040;-84
2023/01/22 15:24:39;;;;;;;1.20;0.77;;;;;;;1.21;nan;103183.81;9845540;29;20308;-83
2023/01/22 15:29:41;;;;;;;0.60;0.40;;;;;;;1.24;nan;103187.59;9868485;29;20056;-84
2023/01/22 15:34:43;;;;;;;0.35;0.35;;;;;;;1.22;nan;103189.13;9847716;29;20058;-84
2023/01/22 15:39:46;;;;;;;0.75;0.68;;;;;;;1.20;nan;103184.56;9850049;29;20597;-82
2023/01/22 15:44:47;;;;;;;0.77;0.50;;;;;;;1.19;nan;103188.84;9849061;29;20062;-83
2023/01/22 15:49:49;;;;;;;1.70;0.95;;;;;;;1.21;nan;103197.63;9857846;30;20059;-84
2023/01/22 15:54:52;;;;;;;1.55;0.40;;;;;;;1.21;nan;103202.78;9866724;29;20048;-82
2023/01/22 15:59:54;;;;;;;1.25;0.63;;;;;;;1.21;nan;103207.94;9854220;29;20048;-83
2023/01/22 16:04:55;;;;;;;0.80;0.80;;;;;;;1.24;nan;103210.81;9845515;29;20051;-82
2023/01/22 16:09:57;;;;;;;1.98;1.42;;;;;;;1.23;nan;103211.59;9864208;29;20113;-82
2023/01/22 16:14:59;;;;;;;0.25;0.25;;;;;;;1.22;nan;103212.34;9839589;29;20072;-83
2023/01/22 16:20:00;;;;;;;1.10;0.68;;;;;;;1.26;nan;103221.28;9837851;29;20117;-83
2023/01/22 16:25:02;;;;;;;1.40;0.98;;;;;;;1.27;nan;103224.78;9836901;29;20250;-82
2023/01/22 16:30:06;;;;;;;0.63;0.60;;;;;;;1.27;nan;103219.63;9858007;30;20074;-83
2023/01/22 16:35:09;;;;;;;0.47;0.47;;;;;;;1.30;nan;103223.41;9856156;30;20055;-83
2023/01/22 16:40:12;;;;;;;0.93;0.85;;;;;;;1.29;nan;103223.25;9840119;30;20060;-83
2023/01/22 16:45:13;;;;;;;1.45;0.85;;;;;;;1.28;nan;103221.47;9844230;29;20068;-82
2023/01/22 16:50:15;;;;;;;0.68;0.60;;;;;;;1.30;nan;103219.91;9860122;30;20056;-83
2023/01/22 16:55:17;;;;;;;1.48;1.15;;;;;;;1.32;nan;103211.56;9855904;29;20066;-84
2023/01/22 17:00:19;;;;;;;0.40;0.40;;;;;;;1.32;nan;103210.63;9860070;29;20531;-83
2023/01/22 17:05:21;;;;;;;1.50;1.05;;;;;;;1.31;nan;103224.31;9857655;30;20052;-84
2023/01/22 17:10:23;;;;;;;0.20;0.20;;;;;;;1.32;nan;103227.06;9856456;30;20047;-86
2023/01/22 17:15:25;;;;;;;1.02;0.50;;;;;;;1.30;nan;103233.72;9845226;30;20604;-87
2023/01/22 17:20:27;;;;;;;1.55;0.82;;;;;;;1.31;nan;103222.66;9848171;30;20056;-84
2023/01/22 17:25:29;;;;;;;1.60;1.50;;;;;;;1.34;nan;103229.78;9846995;30;20138;-85
2023/01/22 17:30:31;;;;;;;0.43;0.43;;;;;;;1.36;nan;103231.72;9849904;30;20046;-86
2023/01/22 17:35:32;;;;;;;2.03;1.05;;;;;;;1.38;nan;103231.84;9843841;30;21369;-85
2023/01/22 17:40:36;;;;;;;4.68;1.48;;;;;;;1.38;nan;103237.03;9854885;30;20692;-86
2023/01/22 17:45:38;;;;;;;1.13;0.80;;;;;;;1.39;nan;103239.75;9845226;30;20055;-85
2023/01/22 17:50:40;;;;;;;0.88;0.80;;;;;;;1.41;nan;103230.50;9861119;30;20541;-85
2023/01/22 17:55:42;;;;;;;0.75;0.55;;;;;;;1.42;nan;103241.72;9846108;30;20053;-85
2023/01/22 18:00:44;;;;;;;2.10;1.33;;;;;;;1.41;nan;103240.81;9860472;29;20063;-86
2023/01/22 18:05:46;;;;;;;0.45;0.40;;;;;;;1.36;nan;103252.38;9872528;29;20070;-84
2023/01/22 18:10:51;;;;;;;0.90;0.80;;;;;;;1.34;nan;103255.59;9866480;29;20048;-85
2023/01/22 18:16:01;;;;;;;1.20;0.98;;;;;;;1.34;nan;103260.75;9838425;29;20236;-85
2023/01/22 18:21:05;;;;;;;1.85;0.57;;;;;;;1.32;nan;103262.25;9853258;30;20141;-85
2023/01/22 18:26:09;;;;;;;0.73;0.73;;;;;;;1.26;nan;103262.59;9864361;29;20121;-85
2023/01/22 18:31:15;;;;;;;1.00;0.63;;;;;;;1.24;nan;103264.13;9842768;30;20401;-85
2023/01/22 18:36:20;;;;;;;1.80;0.85;;;;;;;1.24;nan;103269.28;9853209;30;20067;-84
2023/01/22 18:41:24;;;;;;;2.28;1.08;;;;;;;1.24;nan;103274.44;9862108;29;20535;-84
2023/01/22 18:46:32;;;;;;;2.58;0.95;;;;;;;1.26;nan;103267.75;9841113;30;20090;-85
2023/01/22 18:51:34;;;;;;;1.10;0.90;;;;;;;1.25;nan;103271.13;9843855;30;20080;-84
2023/01/22 18:56:36;;;;;;;3.53;0.60;;;;;;;1.20;nan;103273.25;9847392;30;20056;-84
2023/01/22 19:01:49;;;;;;;1.45;0.70;;;;;;;1.20;nan;103286.16;9851106;29;20212;-85
2023/01/22 19:06:55;;;;;;;1.45;0.77;;;;;;;1.19;nan;103268.84;9862269;30;20081;-85
2023/01/22 19:11:58;;;;;;;0.60;0.60;;;;;;;1.21;nan;103275.06;9869264;30;20050;-84
2023/01/22 19:16:59;;;;;;;0.57;0.57;;;;;;;1.20;nan;103286.16;9867128;30;20071;-84
2023/01/22 19:22:02;;;;;;;0.88;0.63;;;;;;;1.21;nan;103292.22;9868921;30;20059;-85
2023/01/22 19:27:03;;;;;;;1.33;0.68;;;;;;;1.21;nan;103290.53;9861147;30;20043;-85
2023/01/22 19:32:10;;;;;;;0.47;0.47;;;;;;;1.17;nan;103293.63;9868929;30;20705;-85
2023/01/22 19:37:11;;;;;;;0.85;0.75;;;;;;;1.19;nan;103306.66;9867202;30;20056;-86
2023/01/22 19:42:14;;;;;;;2.22;1.27;;;;;;;1.19;nan;103306.66;9851435;30;20052;-85
2023/01/22 19:47:18;;;;;;;0.57;0.50;;;;;;;1.19;nan;103312.72;9847196;29;20080;-86
2023/01/22 19:52:20;;;;;;;1.38;1.13;;;;;;;1.20;nan;103323.97;9854853;29;20131;-86
2023/01/22 19:57:22;;;;;;;1.65;0.60;;;;;;;1.21;nan;103331.84;9851627;29;20060;-85
2023/01/22 20:02:24;;;;;;;1.50;0.70;;;;;;;1.22;nan;103333.69;9860297;29;20569;-85
2023/01/22 20:07:27;;;;;;;0.82;0.43;;;;;;;1.21;nan;103336.09;9844610;29;20047;-85
2023/01/22 20:12:30;;;;;;;1.25;0.95;;;;;;;1.23;nan;103344.91;9865365;29;20048;-85
2023/01/22 20:17:33;;;;;;;2.95;1.65;;;;;;;1.26;nan;103352.03;9853624;29;20042;-85
2023/01/22 20:22:35;;;;;;;0.30;0.30;;;;;;;1.21;nan;103349.91;9862770;29;20055;-85
2023/01/22 20:27:36;;;;;;;1.80;1.13;;;;;;;1.26;nan;103359.78;9844353;29;20045;-86
2023/01/22 20:32:38;;;;;;;0.43;0.43;;;;;;;1.24;nan;103352.78;9861267;29;20055;-85
2023/01/22 20:37:41;;;;;;;0.52;0.50;;;;;;;1.23;nan;103358.72;9837521;29;20052;-85
2023/01/22 20:42:42;;;;;;;1.70;1.48;;;;;;;1.22;nan;103358.59;9859031;29;20055;-84
2023/01/22 20:47:44;;;;;;;0.40;0.40;;;;;;;1.21;nan;103357.66;9868439;29;20645;-84
2023/01/22 20:52:46;;;;;;;3.58;1.92;;;;;;;1.20;nan;103363.59;9833064;29;20857;-83
2023/01/22 20:57:47;;;;;;;0.73;0.43;;;;;;;1.24;nan;103367.38;9863371;29;20101;-83
2023/01/22 21:02:49;;;;;;;1.33;1.00;;;;;;;1.24;nan;103352.78;9845162;29;20062;-82
2023/01/22 21:07:51;;;;;;;4.95;0.85;;;;;;;1.23;nan;103355.22;9838916;29;20058;-83
2023/01/22 21:12:53;;;;;;;2.17;1.30;;;;;;;1.25;nan;103361.47;9860838;29;20060;-83
2023/01/22 21:17:54;;;;;;;0.38;0.38;;;;;;;1.23;nan;103348.41;9846536;29;20074;-83
2023/01/22 21:22:56;;;;;;;0.95;0.82;;;;;;;1.23;nan;103348.41;9860370;29;20071;-82
2023/01/22 21:27:58;;;;;;;0.98;0.63;;;;;;;1.23;nan;103355.22;9844374;29;20048;-83
2023/01/22 21:32:59;;;;;;;0.77;0.30;;;;;;;1.24;nan;103350.19;9860106;29;20479;-82
2023/01/22 21:38:01;;;;;;;1.35;0.70;;;;;;;1.27;nan;103359.03;9848906;29;20575;-83
2023/01/22 21:48:23;;;;;;;0.35;0.35;;;;;;;1.30;nan;103356.75;9850168;29;20606;-83
2023/01/22 21:53:25;;;;;;;0.50;0.45;;;;;;;1.32;nan;103352.63;9837954;29;20052;-83
2023/01/22 21:58:26;;;;;;;1.92;0.95;;;;;;;1.31;nan;103361.16;9839044;29;20047;-84
2023/01/22 22:03:31;;;;;;;0.85;0.82;;;;;;;1.33;nan;103360.50;9831484;29;20059;-83
2023/01/22 22:08:35;;;;;;;0.30;0.30;;;;;;;1.33;nan;103369.94;9848804;29;20512;-84
2023/01/22 22:13:37;;;;;;;0.52;0.50;;;;;;;1.34;nan;103364.91;9849775;29;20044;-83
2023/01/22 22:18:39;;;;;;;0.15;0.15;;;;;;;1.36;nan;103372.81;9851577;29;20056;-84
2023/01/22 22:23:41;;;;;;;1.70;0.93;;;;;;;1.38;nan;103366.13;9842851;29;20139;-84
2023/01/22 22:28:43;;;;;;;0.20;0.20;;;;;;;1.36;nan;103367.66;9853996;29;20082;-86
2023/01/22 22:33:49;;;;;;;1.52;0.85;;;;;;;1.35;nan;103370.97;9856253;29;20060;-84
2023/01/22 22:38:51;;;;;;;1.55;0.47;;;;;;;1.35;nan;103382.25;9851104;29;20052;-83
2023/01/22 22:43:54;;;;;;;1.88;0.82;;;;;;;1.35;nan;103386.47;9853616;29;20060;-84
2023/01/22 22:48:59;;;;;;;0.52;0.52;;;;;;;1.36;nan;103393.47;9842595;29;20109;-83
2023/01/22 22:54:04;;;;;;;0.25;0.25;;;;;;;1.37;nan;103395.28;9861948;29;20087;-83
2023/01/22 22:59:06;;;;;;;0.82;0.65;;;;;;;1.39;nan;103398.94;9844978;29;20040;-83
2023/01/22 23:04:08;;;;;;;1.25;0.95;;;;;;;1.39;nan;103409.25;9851203;29;20543;-84
2023/01/22 23:09:12;;;;;;;0.85;0.45;;;;;;;1.40;nan;103422.31;9862666;29;20044;-84
2023/01/22 23:14:13;;;;;;;0.10;0.10;;;;;;;1.39;nan;103419.56;9858438;29;20060;-84
2023/01/22 23:19:18;;;;;;;0.65;0.55;;;;;;;1.42;nan;103415.59;9835856;29;20056;-84
2023/01/22 23:24:21;;;;;;;0.57;0.57;;;;;;;1.42;nan;103412.13;9861379;29;20052;-84
2023/01/22 23:29:25;;;;;;;0.60;0.52;;;;;;;1.43;nan;103416.53;9845375;29;20052;-84
2023/01/22 23:34:27;;;;;;;0.70;0.38;;;;;;;1.44;nan;103410.59;9861786;29;20056;-85
2023/01/22 23:39:28;;;;;;;0.30;0.30;;;;;;;1.40;nan;103405.91;9861205;29;20740;-84
2023/01/22 23:44:30;;;;;;;0.35;0.30;;;;;;;1.38;nan;103413.53;9861176;29;20093;-84
2023/01/22 23:49:32;;;;;;;0.20;0.20;;;;;;;1.36;nan;103411.53;9847837;29;20052;-84
2023/01/22 23:54:34;;;;;;;1.02;0.43;;;;;;;1.37;nan;103411.69;9853534;29;20064;-83
2023/01/22 23:59:35;;;;;;;0.88;0.57;;;;;;;1.37;nan;103415.94;9845055;29;20529;-83
